Time;durP1;ratioP1;P1;durP2;ratioP2;P2;SDS_P1;SDS_P2;PMS_P1;PMS_P2;Temp;Humidity;BMP_temperature;BMP_pressure;BME280_temperature;BME280_humidity;BME280_pressure;Samples;Min_cycle;Max_cycle;Signal;HPM_P1;HPM_P2
2022/04/03 00:00:35;;;;;;;2.70;2.45;;;1.80;79.60;;;;;;5008086;28;20029;-77
2022/04/03 00:03:01;;;;;;;3.33;2.50;;;1.80;79.70;;;;;;5022716;28;20049;-76
2022/04/03 00:05:27;;;;;;;4.40;2.55;;;1.80;79.60;;;;;;5014309;28;20174;-77
2022/04/03 00:07:54;;;;;;;4.03;2.33;;;1.80;79.70;;;;;;5021253;28;20033;-75
2022/04/03 00:10:20;;;;;;;3.47;2.20;;;1.80;79.70;;;;;;5014630;28;20041;-76
2022/04/03 00:12:46;;;;;;;3.42;2.65;;;1.80;79.70;;;;;;5012472;28;20033;-76
2022/04/03 00:15:14;;;;;;;3.35;2.45;;;1.80;79.60;;;;;;4982969;28;20105;-76
2022/04/03 00:17:40;;;;;;;3.75;2.45;;;1.80;79.60;;;;;;4986256;28;20111;-76
2022/04/03 00:20:05;;;;;;;3.47;2.35;;;1.80;79.60;;;;;;4976192;28;20038;-76
2022/04/03 00:22:31;;;;;;;5.03;2.30;;;1.80;79.70;;;;;;5010505;28;20553;-75
2022/04/03 00:24:57;;;;;;;4.53;2.42;;;1.70;79.60;;;;;;4991382;28;20035;-75
2022/04/03 00:27:22;;;;;;;3.45;2.38;;;1.70;79.70;;;;;;4987407;28;20045;-76
2022/04/03 00:29:48;;;;;;;3.45;2.38;;;1.70;79.70;;;;;;4990598;28;20030;-76
2022/04/03 00:32:13;;;;;;;3.38;2.47;;;1.70;80.50;;;;;;4996068;28;20043;-75
2022/04/03 00:34:39;;;;;;;3.28;2.65;;;1.70;79.80;;;;;;5009816;28;20096;-75
2022/04/03 00:37:04;;;;;;;10.68;5.63;;;1.60;79.80;;;;;;4989986;28;20422;-76
2022/04/03 00:39:30;;;;;;;3.42;2.80;;;1.60;79.80;;;;;;4994895;28;20494;-75
2022/04/03 00:41:55;;;;;;;4.00;2.22;;;1.60;79.80;;;;;;4978751;28;20097;-75
2022/04/03 00:44:21;;;;;;;3.30;2.55;;;1.60;79.80;;;;;;4991210;28;20490;-76
2022/04/03 00:46:47;;;;;;;3.35;2.45;;;1.60;79.90;;;;;;4969117;28;20140;-76
2022/04/03 00:49:13;;;;;;;4.18;2.55;;;1.60;79.90;;;;;;4978990;28;20069;-76
2022/04/03 00:51:38;;;;;;;3.38;2.67;;;1.60;79.90;;;;;;4982493;28;20042;-74
2022/04/03 00:54:04;;;;;;;4.35;2.30;;;1.60;79.90;;;;;;4977189;28;20046;-76
2022/04/03 00:56:31;;;;;;;2.63;2.33;;;1.50;79.80;;;;;;4980553;28;20482;-76
2022/04/03 00:58:56;;;;;;;4.90;2.50;;;1.50;79.90;;;;;;4990224;28;20097;-76
2022/04/03 01:01:22;;;;;;;4.18;2.10;;;1.50;80.00;;;;;;4993248;28;20113;-76
2022/04/03 01:03:48;;;;;;;3.65;2.47;;;1.50;80.00;;;;;;4992883;28;20030;-75
2022/04/03 01:06:14;;;;;;;3.00;2.17;;;1.50;79.90;;;;;;5012004;28;20042;-76
2022/04/03 01:08:42;;;;;;;4.03;2.72;;;1.40;79.90;;;;;;4998280;28;20145;-75
2022/04/03 01:11:08;;;;;;;3.40;2.30;;;1.40;80.00;;;;;;4982844;28;20035;-75
2022/04/03 01:13:33;;;;;;;2.35;2.13;;;1.40;80.10;;;;;;4983633;28;20059;-76
2022/04/03 01:15:59;;;;;;;2.97;2.17;;;1.40;80.10;;;;;;5022826;28;20041;-75
2022/04/03 01:18:25;;;;;;;2.90;2.45;;;1.40;80.20;;;;;;5010794;28;20033;-76
2022/04/03 01:20:52;;;;;;;3.80;2.35;;;1.50;80.30;;;;;;4998563;28;20040;-76
2022/04/03 01:23:19;;;;;;;2.75;2.13;;;1.50;80.40;;;;;;5006496;28;20421;-75
2022/04/03 01:25:45;;;;;;;5.10;2.63;;;1.50;80.30;;;;;;5013519;28;20049;-75
2022/04/03 01:28:10;;;;;;;3.67;2.78;;;1.50;80.30;;;;;;5000665;28;20064;-75
2022/04/03 01:30:36;;;;;;;4.95;2.55;;;1.50;80.40;;;;;;4996038;28;20049;-76
2022/04/03 01:33:01;;;;;;;3.60;2.22;;;1.50;80.40;;;;;;5014021;28;20053;-75
2022/04/03 01:35:27;;;;;;;2.78;2.08;;;1.50;80.40;;;;;;5004555;28;20029;-75
2022/04/03 01:37:52;;;;;;;6.43;2.38;;;1.50;80.30;;;;;;5014320;28;20029;-75
2022/04/03 01:40:18;;;;;;;3.40;2.30;;;1.60;80.40;;;;;;5012595;28;20084;-78
2022/04/03 01:42:43;;;;;;;3.65;2.50;;;1.50;80.20;;;;;;5016278;28;20061;-75
2022/04/03 01:45:10;;;;;;;3.83;2.15;;;1.60;80.40;;;;;;4998172;28;20049;-75
2022/04/03 01:47:36;;;;;;;3.92;2.67;;;1.50;80.20;;;;;;5019937;28;20048;-77
2022/04/03 01:50:02;;;;;;;3.17;2.28;;;1.50;80.30;;;;;;4997531;28;20061;-76
2022/04/03 01:52:28;;;;;;;4.20;2.60;;;1.50;80.20;;;;;;5007534;28;20061;-76
2022/04/03 01:54:53;;;;;;;2.10;1.90;;;1.40;80.30;;;;;;5029041;28;20052;-76
2022/04/03 01:57:19;;;;;;;4.15;2.38;;;1.40;80.20;;;;;;4999770;28;20088;-77
2022/04/03 01:59:44;;;;;;;5.22;2.78;;;1.40;80.20;;;;;;5033500;28;20080;-75
2022/04/03 02:02:11;;;;;;;2.97;2.20;;;1.40;80.30;;;;;;4998463;28;20045;-77
2022/04/03 02:04:37;;;;;;;3.63;2.40;;;1.30;80.20;;;;;;5007887;28;20048;-77
2022/04/03 02:07:03;;;;;;;4.72;2.53;;;1.30;80.30;;;;;;5024033;28;20105;-76
2022/04/03 02:09:30;;;;;;;3.22;2.50;;;1.30;80.40;;;;;;4991391;28;20061;-76
2022/04/03 02:11:57;;;;;;;2.53;2.33;;;1.30;80.50;;;;;;5020522;28;20041;-77
2022/04/03 02:14:24;;;;;;;4.50;2.53;;;1.30;80.50;;;;;;5022102;28;20048;-76
2022/04/03 02:16:54;;;;;;;3.10;2.30;;;1.30;80.60;;;;;;4970248;28;20100;-76
2022/04/03 02:19:20;;;;;;;4.65;2.72;;;1.30;80.60;;;;;;4990111;28;20030;-76
2022/04/03 02:21:46;;;;;;;2.67;2.40;;;1.30;80.60;;;;;;4981502;28;20045;-76
2022/04/03 02:24:11;;;;;;;4.53;2.20;;;1.30;80.60;;;;;;4993970;28;20031;-76
2022/04/03 02:26:37;;;;;;;3.35;2.38;;;1.30;80.60;;;;;;5009862;28;20034;-76
2022/04/03 02:29:02;;;;;;;4.20;2.20;;;1.30;80.70;;;;;;4986922;28;20100;-76
2022/04/03 02:31:28;;;;;;;5.32;2.70;;;1.30;80.60;;;;;;4994829;28;20084;-76
2022/04/03 02:33:53;;;;;;;2.53;2.17;;;1.30;80.60;;;;;;4965623;28;20034;-76
2022/04/03 02:36:19;;;;;;;6.03;3.30;;;1.30;80.60;;;;;;4987273;28;20053;-76
2022/04/03 02:38:44;;;;;;;3.00;2.10;;;1.30;80.70;;;;;;4988872;28;20062;-76
2022/04/03 02:41:10;;;;;;;3.13;2.55;;;1.20;80.60;;;;;;4995427;28;20038;-76
2022/04/03 02:43:35;;;;;;;5.85;2.83;;;1.20;80.60;;;;;;4974719;28;20773;-77
2022/04/03 02:46:01;;;;;;;3.10;2.42;;;1.20;80.60;;;;;;4993859;28;20045;-76
2022/04/03 02:48:26;;;;;;;3.17;2.47;;;1.10;80.50;;;;;;4977883;28;20469;-75
2022/04/03 02:50:52;;;;;;;3.30;2.60;;;1.10;80.50;;;;;;4998184;28;20034;-76
2022/04/03 02:53:17;;;;;;;4.07;2.30;;;1.00;80.40;;;;;;4969171;28;20026;-76
2022/04/03 02:55:43;;;;;;;4.72;2.42;;;1.00;80.40;;;;;;4984697;28;20034;-77
2022/04/03 02:58:08;;;;;;;2.92;2.63;;;0.90;80.40;;;;;;5001347;28;20091;-77
2022/04/03 03:00:35;;;;;;;3.85;2.90;;;0.80;80.50;;;;;;4965153;28;20072;-77
2022/04/03 03:03:01;;;;;;;3.35;2.33;;;0.80;80.60;;;;;;5006460;28;20112;-76
2022/04/03 03:05:26;;;;;;;3.58;2.50;;;0.70;80.60;;;;;;4968903;28;20486;-75
2022/04/03 03:07:52;;;;;;;3.63;2.40;;;0.70;80.70;;;;;;4993232;28;20030;-76
2022/04/03 03:10:19;;;;;;;3.55;2.80;;;0.60;80.70;;;;;;4971527;28;20030;-77
2022/04/03 03:12:46;;;;;;;5.20;2.80;;;0.60;80.90;;;;;;4972566;28;20060;-76
2022/04/03 03:15:12;;;;;;;2.83;2.53;;;0.60;81.00;;;;;;4967058;28;20074;-75
2022/04/03 03:17:38;;;;;;;3.55;2.50;;;0.60;81.10;;;;;;4999480;28;20113;-78
2022/04/03 03:20:05;;;;;;;4.35;2.67;;;0.60;81.10;;;;;;5021880;28;20046;-77
2022/04/03 03:22:31;;;;;;;4.95;2.38;;;0.50;81.00;;;;;;4985564;28;20025;-75
2022/04/03 03:24:57;;;;;;;3.47;2.20;;;0.50;81.00;;;;;;4980340;28;20042;-76
2022/04/03 03:27:22;;;;;;;3.97;2.80;;;0.50;81.10;;;;;;4974225;28;20041;-76
2022/04/03 03:29:48;;;;;;;3.28;2.53;;;0.50;81.10;;;;;;4984914;28;20061;-76
2022/04/03 03:32:13;;;;;;;3.15;2.47;;;0.50;81.10;;;;;;4980682;28;20044;-76
2022/04/03 03:34:39;;;;;;;3.25;2.60;;;0.50;81.90;;;;;;4995019;28;20048;-77
2022/04/03 03:37:05;;;;;;;4.22;2.42;;;0.50;81.20;;;;;;4984424;28;20033;-76
2022/04/03 03:39:30;;;;;;;2.78;2.22;;;0.50;81.20;;;;;;4979699;28;20034;-75
2022/04/03 03:41:56;;;;;;;6.82;3.05;;;0.50;81.30;;;;;;4977503;28;20049;-78
2022/04/03 03:44:22;;;;;;;3.10;2.40;;;0.50;81.40;;;;;;4981115;28;20087;-77
2022/04/03 03:46:48;;;;;;;5.90;2.55;;;0.50;81.40;;;;;;4977759;28;20551;-77
2022/04/03 03:49:14;;;;;;;3.40;2.60;;;0.50;81.50;;;;;;5009104;28;20057;-77
2022/04/03 03:51:40;;;;;;;4.75;2.67;;;0.50;81.50;;;;;;4977726;28;20044;-76
2022/04/03 03:54:05;;;;;;;4.47;2.72;;;0.50;81.40;;;;;;4979338;28;20507;-76
2022/04/03 03:56:31;;;;;;;5.90;2.42;;;0.50;81.40;;;;;;4965677;28;20121;-76
2022/04/03 03:58:56;;;;;;;5.35;2.55;;;0.50;81.50;;;;;;4965334;28;20130;-77
2022/04/03 04:01:22;;;;;;;3.13;2.60;;;0.40;81.40;;;;;;4990402;28;20025;-76
2022/04/03 04:03:48;;;;;;;3.33;2.47;;;0.40;81.40;;;;;;4990030;28;20125;-77
2022/04/03 04:06:14;;;;;;;3.35;2.50;;;0.40;81.40;;;;;;4983123;28;20042;-77
2022/04/03 04:08:39;;;;;;;2.88;2.58;;;0.40;81.40;;;;;;4997068;28;20038;-76
2022/04/03 04:11:05;;;;;;;3.78;2.75;;;0.40;81.40;;;;;;4991487;28;20037;-76
2022/04/03 04:13:31;;;;;;;5.25;2.63;;;0.40;81.30;;;;;;4981112;28;20047;-76
2022/04/03 04:15:56;;;;;;;3.25;2.55;;;0.30;81.30;;;;;;5000791;28;20029;-76
2022/04/03 04:18:22;;;;;;;4.57;2.80;;;0.20;81.20;;;;;;5003184;28;20029;-77
2022/04/03 04:20:48;;;;;;;3.95;2.58;;;0.20;81.30;;;;;;5024318;28;20041;-77
2022/04/03 04:23:14;;;;;;;3.10;2.67;;;0.20;81.40;;;;;;4997466;28;20044;-76
2022/04/03 04:25:39;;;;;;;3.65;2.95;;;0.20;81.60;;;;;;5010242;28;20025;-76
2022/04/03 04:28:05;;;;;;;3.50;2.70;;;0.20;81.60;;;;;;5025563;28;20044;-76
2022/04/03 04:30:31;;;;;;;7.35;3.25;;;0.20;81.60;;;;;;4993865;28;20022;-78
2022/04/03 04:32:56;;;;;;;6.80;3.25;;;0.20;81.60;;;;;;4985712;28;20058;-76
2022/04/03 04:35:22;;;;;;;3.78;2.78;;;0.10;81.50;;;;;;4996199;28;20022;-75
2022/04/03 04:37:48;;;;;;;5.03;2.92;;;0.10;81.50;;;;;;4992481;28;20034;-75
2022/04/03 04:40:13;;;;;;;3.05;2.60;;;0.10;81.50;;;;;;4992342;28;20474;-76
2022/04/03 04:42:39;;;;;;;4.15;2.88;;;0.00;81.40;;;;;;4994394;28;20041;-76
2022/04/03 04:45:07;;;;;;;3.88;2.40;;;0.00;81.40;;;;;;4998085;28;20057;-77
2022/04/03 04:47:38;;;;;;;3.90;2.60;;;-0.10;81.40;;;;;;4998030;28;20037;-75
2022/04/03 04:50:11;;;;;;;3.97;2.60;;;-0.10;81.50;;;;;;5019820;28;20062;-76
2022/04/03 04:52:38;;;;;;;3.85;2.75;;;-0.20;81.40;;;;;;4998889;28;20033;-76
2022/04/03 04:55:06;;;;;;;5.07;3.00;;;-0.20;81.50;;;;;;5007718;28;20037;-76
2022/04/03 04:57:37;;;;;;;4.03;2.75;;;-0.20;81.50;;;;;;5013374;28;20026;-76
2022/04/03 05:00:07;;;;;;;3.78;2.88;;;-0.30;81.60;;;;;;4991945;28;20041;-76
2022/04/03 05:02:33;;;;;;;4.10;2.28;;;-0.30;81.70;;;;;;4997642;28;20045;-76
2022/04/03 05:04:58;;;;;;;3.20;2.72;;;-0.30;81.70;;;;;;5002605;28;20106;-76
2022/04/03 05:07:24;;;;;;;6.38;3.13;;;-0.40;81.60;;;;;;5027255;28;20033;-76
2022/04/03 05:09:49;;;;;;;5.00;2.85;;;-0.40;81.70;;;;;;5011053;28;20029;-76
2022/04/03 05:12:15;;;;;;;4.88;2.78;;;-0.40;81.80;;;;;;5010651;28;20095;-78
2022/04/03 05:14:41;;;;;;;4.68;2.85;;;-0.40;81.90;;;;;;4972276;28;20124;-77
2022/04/03 05:17:07;;;;;;;6.28;3.20;;;-0.40;81.90;;;;;;4994675;28;20081;-77
2022/04/03 05:19:33;;;;;;;4.47;2.85;;;-0.50;81.90;;;;;;4992491;28;20065;-77
2022/04/03 05:21:58;;;;;;;3.85;3.22;;;-0.40;82.10;;;;;;4962952;28;20045;-78
2022/04/03 05:24:24;;;;;;;3.50;2.45;;;-0.50;82.10;;;;;;4985552;28;20042;-78
2022/04/03 05:26:50;;;;;;;5.03;3.22;;;-0.40;82.10;;;;;;4986518;28;20061;-78
2022/04/03 05:29:15;;;;;;;5.25;2.90;;;-0.40;82.20;;;;;;4969296;28;20730;-79
2022/04/03 05:31:41;;;;;;;6.28;3.05;;;-0.40;82.30;;;;;;4985272;28;20044;-77
2022/04/03 05:34:08;;;;;;;4.05;3.08;;;-0.40;82.30;;;;;;4971283;28;20044;-76
2022/04/03 05:36:34;;;;;;;7.07;3.50;;;-0.40;82.30;;;;;;4965392;28;20236;-77
2022/04/03 05:39:00;;;;;;;5.05;2.80;;;-0.40;82.30;;;;;;4984498;28;20030;-77
2022/04/03 05:41:25;;;;;;;4.18;2.85;;;-0.40;82.30;;;;;;4980117;28;20560;-77
2022/04/03 05:43:51;;;;;;;5.15;3.10;;;-0.30;82.40;;;;;;4964763;28;20575;-77
2022/04/03 05:46:17;;;;;;;5.25;3.10;;;-0.30;82.40;;;;;;4977838;28;20038;-78
2022/04/03 05:48:42;;;;;;;4.88;3.50;;;-0.30;82.40;;;;;;4979891;28;20462;-78
2022/04/03 05:51:08;;;;;;;4.60;2.85;;;-0.30;82.40;;;;;;4991215;28;20029;-79
2022/04/03 05:53:33;;;;;;;4.22;3.30;;;-0.30;82.40;;;;;;4985031;28;20039;-77
2022/04/03 05:55:59;;;;;;;4.50;2.88;;;-0.20;82.40;;;;;;4955062;28;20116;-77
2022/04/03 05:58:25;;;;;;;5.15;3.35;;;-0.20;82.40;;;;;;4960859;28;20101;-78
2022/04/03 06:00:50;;;;;;;5.55;3.65;;;-0.20;82.40;;;;;;4957920;28;20494;-77
2022/04/03 06:03:16;;;;;;;5.90;4.00;;;-0.20;82.40;;;;;;5007014;28;20028;-77
2022/04/03 06:05:41;;;;;;;5.07;3.55;;;-0.10;82.50;;;;;;5001762;28;20029;-77
2022/04/03 06:08:07;;;;;;;4.57;3.45;;;-0.10;82.50;;;;;;4986070;28;20041;-77
2022/04/03 06:10:34;;;;;;;7.13;4.22;;;0.00;82.60;;;;;;4985666;28;20021;-79
2022/04/03 06:13:00;;;;;;;7.55;4.43;;;0.00;82.60;;;;;;4994661;28;20463;-78
2022/04/03 06:15:31;;;;;;;9.15;5.43;;;0.10;82.60;;;;;;4992643;28;20030;-78
2022/04/03 06:17:57;;;;;;;9.38;6.35;;;0.10;82.60;;;;;;4998795;28;20546;-78
2022/04/03 06:20:22;;;;;;;11.98;7.18;;;0.10;82.60;;;;;;4989880;28;20128;-77
2022/04/03 06:22:48;;;;;;;11.68;6.60;;;0.10;82.60;;;;;;4974755;28;20146;-78
2022/04/03 06:25:14;;;;;;;8.68;5.10;;;0.20;82.60;;;;;;4993246;28;20037;-77
2022/04/03 06:27:40;;;;;;;8.23;4.75;;;0.20;82.60;;;;;;4999192;28;20092;-77
2022/04/03 06:30:06;;;;;;;11.25;7.15;;;0.20;82.60;;;;;;4991340;28;20034;-78
2022/04/03 06:32:32;;;;;;;11.27;6.82;;;0.30;82.60;;;;;;5016821;28;20037;-78
2022/04/03 06:34:57;;;;;;;26.35;14.38;;;0.40;82.80;;;;;;4988309;28;20022;-77
2022/04/03 06:37:23;;;;;;;16.45;10.30;;;0.40;82.70;;;;;;5019160;28;20034;-78
2022/04/03 06:39:48;;;;;;;359.45;153.68;;;0.50;82.70;;;;;;4968047;28;20041;-78
2022/04/03 06:42:14;;;;;;;151.68;70.72;;;0.50;82.70;;;;;;5017451;28;20075;-77
2022/04/03 06:44:40;;;;;;;46.95;21.92;;;0.60;82.60;;;;;;4988566;28;20038;-77
2022/04/03 06:47:06;;;;;;;29.95;14.60;;;0.70;82.60;;;;;;5001070;28;20041;-77
2022/04/03 06:49:31;;;;;;;195.32;95.30;;;0.80;82.60;;;;;;4982819;28;20069;-78
2022/04/03 06:51:57;;;;;;;39.80;21.27;;;0.80;82.50;;;;;;4987824;28;20076;-77
2022/04/03 06:54:22;;;;;;;19.23;10.75;;;0.90;82.40;;;;;;4978422;28;20029;-77
2022/04/03 06:56:48;;;;;;;16.67;8.32;;;1.00;82.40;;;;;;5001714;28;20041;-79
2022/04/03 06:59:13;;;;;;;11.18;7.45;;;1.10;82.30;;;;;;4974932;28;20065;-77
2022/04/03 07:01:39;;;;;;;21.10;9.98;;;1.20;82.30;;;;;;4982556;28;20058;-79
2022/04/03 07:04:05;;;;;;;11.50;7.00;;;1.20;82.20;;;;;;4970988;28;20073;-77
2022/04/03 07:06:30;;;;;;;8.52;5.47;;;1.40;82.20;;;;;;4977043;28;20526;-77
2022/04/03 07:08:56;;;;;;;12.35;8.07;;;1.50;82.20;;;;;;4991087;28;20064;-77
2022/04/03 07:11:21;;;;;;;9.77;6.15;;;1.50;82.00;;;;;;4997859;28;20550;-77
2022/04/03 07:13:48;;;;;;;9.18;5.22;;;1.60;82.00;;;;;;4972280;28;20115;-77
2022/04/03 07:16:14;;;;;;;7.00;4.65;;;1.70;81.90;;;;;;4984082;28;20042;-78
2022/04/03 07:18:40;;;;;;;6.95;4.90;;;1.80;81.70;;;;;;4984822;28;20078;-77
2022/04/03 07:21:05;;;;;;;8.43;6.50;;;1.90;81.60;;;;;;4978357;28;20037;-78
2022/04/03 07:23:31;;;;;;;9.27;4.45;;;2.00;81.50;;;;;;5021061;28;20056;-77
2022/04/03 07:25:56;;;;;;;6.80;4.60;;;2.00;81.20;;;;;;4996731;28;20034;-77
2022/04/03 07:28:22;;;;;;;6.85;4.60;;;2.10;81.10;;;;;;5004567;28;20033;-78
2022/04/03 07:30:48;;;;;;;10.90;5.47;;;2.20;80.90;;;;;;4978716;28;20118;-77
2022/04/03 07:33:14;;;;;;;7.75;5.53;;;2.30;80.90;;;;;;4989547;28;21326;-77
2022/04/03 07:35:40;;;;;;;7.20;4.95;;;2.40;80.90;;;;;;4985225;28;20038;-77
2022/04/03 07:38:06;;;;;;;6.13;4.20;;;2.50;80.80;;;;;;5024927;28;20040;-78
2022/04/03 07:40:31;;;;;;;8.02;4.45;;;2.60;80.70;;;;;;5007113;28;20131;-76
2022/04/03 07:42:57;;;;;;;7.75;4.00;;;2.70;80.60;;;;;;4976469;28;20037;-78
2022/04/03 07:45:22;;;;;;;5.10;3.80;;;2.80;80.40;;;;;;5023068;28;20065;-77
2022/04/03 07:47:49;;;;;;;5.82;3.78;;;2.80;80.00;;;;;;4988345;28;20117;-78
2022/04/03 07:50:15;;;;;;;5.05;3.20;;;3.00;80.00;;;;;;4987470;28;20038;-76
2022/04/03 07:52:41;;;;;;;6.65;3.67;;;3.10;79.80;;;;;;5019217;28;20091;-77
2022/04/03 07:55:10;;;;;;;4.60;3.42;;;3.10;79.50;;;;;;5020563;28;20556;-79
2022/04/03 07:57:39;;;;;;;6.30;3.28;;;3.30;79.40;;;;;;4988225;28;20037;-78
2022/04/03 08:00:06;;;;;;;11.88;3.70;;;3.40;79.20;;;;;;4998777;28;20046;-79
2022/04/03 08:02:33;;;;;;;4.15;3.22;;;3.40;78.70;;;;;;4987380;28;20115;-77
2022/04/03 08:04:59;;;;;;;5.20;3.40;;;3.50;78.50;;;;;;5001822;28;20041;-78
2022/04/03 08:07:38;;;;;;;5.85;3.10;;;3.60;78.50;;;;;;5026878;28;20042;-78
2022/04/03 08:10:05;;;;;;;6.80;3.17;;;3.70;78.10;;;;;;4988194;28;20045;-79
2022/04/03 08:12:31;;;;;;;5.18;2.70;;;3.80;78.10;;;;;;5017235;28;20029;-75
2022/04/03 08:14:57;;;;;;;4.07;2.97;;;3.90;78.00;;;;;;4990532;28;20084;-79
2022/04/03 08:17:22;;;;;;;5.20;2.78;;;4.00;77.70;;;;;;4981858;28;20750;-78
2022/04/03 08:19:48;;;;;;;47.63;22.30;;;4.10;77.40;;;;;;5004516;28;20039;-79
2022/04/03 08:22:13;;;;;;;19.50;8.85;;;4.20;77.20;;;;;;4974877;28;20038;-79
2022/04/03 08:24:39;;;;;;;27.25;9.30;;;4.30;77.00;;;;;;5005512;28;20040;-80
2022/04/03 08:27:05;;;;;;;91.40;30.13;;;4.40;77.00;;;;;;4982859;28;21239;-79
2022/04/03 08:29:31;;;;;;;14.57;7.20;;;4.60;76.70;;;;;;4987280;28;20061;-78
2022/04/03 08:31:56;;;;;;;10.02;4.20;;;4.70;76.40;;;;;;5004198;28;20033;-79
2022/04/03 08:34:22;;;;;;;5.80;4.07;;;4.80;76.00;;;;;;4999579;28;20523;-81
2022/04/03 08:36:47;;;;;;;4.30;3.03;;;4.90;75.80;;;;;;4994854;28;20699;-79
2022/04/03 08:39:13;;;;;;;3.47;2.35;;;5.00;75.30;;;;;;5002025;28;21174;-79
2022/04/03 08:41:39;;;;;;;3.63;2.33;;;5.10;74.90;;;;;;4971301;28;20040;-79
2022/04/03 08:44:07;;;;;;;3.47;1.95;;;5.20;74.40;;;;;;4980237;28;20053;-79
2022/04/03 08:46:33;;;;;;;3.78;2.15;;;5.30;74.10;;;;;;4977446;28;20037;-78
2022/04/03 08:49:00;;;;;;;1.90;1.73;;;5.40;74.00;;;;;;5025048;28;20041;-79
2022/04/03 08:51:27;;;;;;;2.33;1.80;;;5.40;73.60;;;;;;4977871;28;20069;-79
2022/04/03 08:53:52;;;;;;;3.45;2.03;;;5.50;73.50;;;;;;4974653;28;20033;-80
2022/04/03 08:56:18;;;;;;;3.42;1.80;;;5.60;73.20;;;;;;4995935;28;20034;-80
2022/04/03 08:58:43;;;;;;;4.70;1.50;;;5.70;72.70;;;;;;4968200;28;20030;-79
2022/04/03 09:01:09;;;;;;;3.55;1.42;;;5.80;72.50;;;;;;5014126;28;20040;-80
2022/04/03 09:03:34;;;;;;;2.65;1.48;;;5.90;72.20;;;;;;4971645;28;20030;-79
2022/04/03 09:06:19;;;;;;;1.98;1.25;;;6.00;71.70;;;;;;4947500;28;20490;-79
2022/04/03 09:08:45;;;;;;;2.00;1.45;;;6.10;70.40;;;;;;4981200;28;20077;-80
2022/04/03 09:11:11;;;;;;;5.63;1.58;;;6.20;70.90;;;;;;4979719;28;20030;-79
2022/04/03 09:13:37;;;;;;;1.70;1.40;;;6.20;70.40;;;;;;4960621;28;20089;-79
2022/04/03 09:16:04;;;;;;;1.65;1.40;;;6.30;70.00;;;;;;4997638;28;20051;-79
2022/04/03 09:18:46;;;;;;;5.40;1.50;;;6.40;69.60;;;;;;4964551;28;20041;-78
2022/04/03 09:21:15;;;;;;;1.80;1.38;;;6.40;68.80;;;;;;4979433;28;20061;-78
2022/04/03 09:24:00;;;;;;;2.80;1.50;;;6.50;69.30;;;;;;4967426;28;20038;-79
2022/04/03 09:26:26;;;;;;;2.60;1.42;;;6.60;68.00;;;;;;4992486;28;20054;-78
2022/04/03 09:29:11;;;;;;;4.13;1.30;;;6.70;68.70;;;;;;4954466;28;20037;-78
2022/04/03 09:31:37;;;;;;;2.65;1.42;;;6.80;67.90;;;;;;4976216;28;20117;-79
2022/04/03 09:34:04;;;;;;;2.83;1.20;;;7.00;68.30;;;;;;4977603;28;20035;-78
2022/04/03 09:36:32;;;;;;;2.08;1.33;;;7.10;68.10;;;;;;4953873;28;20042;-79
2022/04/03 09:39:14;;;;;;;1.77;1.20;;;7.30;67.90;;;;;;4993069;28;20406;-78
2022/04/03 09:41:56;;;;;;;3.47;1.30;;;7.40;67.00;;;;;;4961704;28;20038;-78
2022/04/03 09:44:32;;;;;;;2.25;1.20;;;7.60;66.20;;;;;;4933434;28;20055;-77
2022/04/03 09:47:17;;;;;;;4.10;1.33;;;7.70;66.20;;;;;;4938951;28;20046;-77
2022/04/03 09:50:03;;;;;;;3.08;1.40;;;7.80;64.60;;;;;;4964795;28;20053;-79
2022/04/03 09:52:47;;;;;;;2.67;1.00;;;7.80;64.50;;;;;;4966856;28;20042;-77
2022/04/03 09:55:13;;;;;;;1.33;0.77;;;7.80;64.30;;;;;;4982174;28;20034;-77
2022/04/03 09:57:39;;;;;;;2.40;1.13;;;7.80;64.50;;;;;;4993420;28;20722;-78
2022/04/03 10:00:05;;;;;;;1.52;1.13;;;7.70;64.00;;;;;;4968806;28;20039;-77
2022/04/03 10:02:31;;;;;;;1.67;1.30;;;7.60;63.90;;;;;;4966824;28;20034;-78
2022/04/03 10:04:57;;;;;;;5.88;1.55;;;7.60;64.10;;;;;;4985024;28;20941;-77
2022/04/03 10:07:22;;;;;;;3.50;1.75;;;7.50;63.70;;;;;;4959716;28;20034;-77
2022/04/03 10:09:49;;;;;;;9.35;5.25;;;7.30;63.60;;;;;;4955589;28;20033;-78
2022/04/03 10:12:19;;;;;;;3.55;2.45;;;7.10;63.30;;;;;;4966767;28;20046;-77
2022/04/03 10:14:50;;;;;;;4.10;2.67;;;7.10;63.40;;;;;;4972350;28;20071;-77
2022/04/03 10:17:19;;;;;;;2.97;2.47;;;7.00;63.60;;;;;;4981136;28;20045;-78
2022/04/03 10:19:45;;;;;;;2.95;2.00;;;7.00;63.90;;;;;;4959812;28;20113;-77
2022/04/03 10:22:16;;;;;;;6.15;3.90;;;7.20;64.30;;;;;;4979029;28;20117;-77
2022/04/03 10:24:43;;;;;;;9.40;6.20;;;7.30;64.30;;;;;;4982948;28;20038;-76
2022/04/03 10:27:14;;;;;;;4.97;2.75;;;7.60;64.60;;;;;;4972152;28;20038;-76
2022/04/03 10:29:40;;;;;;;3.70;2.65;;;7.80;64.10;;;;;;4979383;28;20030;-77
2022/04/03 10:32:06;;;;;;;2.63;1.83;;;8.00;63.60;;;;;;4980833;28;20036;-76
2022/04/03 10:34:48;;;;;;;3.58;1.80;;;8.10;63.20;;;;;;4995214;28;20073;-77
2022/04/03 10:37:32;;;;;;;3.53;1.63;;;8.30;62.70;;;;;;4968793;28;20081;-77
2022/04/03 10:40:07;;;;;;;2.45;1.50;;;8.50;62.70;;;;;;4978259;28;20043;-77
2022/04/03 10:42:32;;;;;;;1.80;1.30;;;8.70;62.70;;;;;;4957166;28;20041;-76
2022/04/03 10:45:25;;;;;;;2.90;1.98;;;8.90;62.70;;;;;;4947867;28;20048;-76
2022/04/03 10:47:51;;;;;;;2.17;1.30;;;9.10;61.70;;;;;;4948215;28;20056;-78
2022/04/03 10:50:17;;;;;;;1.58;1.20;;;9.30;62.10;;;;;;4984346;28;20136;-77
2022/04/03 10:52:43;;;;;;;1.95;1.40;;;9.40;61.60;;;;;;4947843;28;20634;-78
2022/04/03 10:55:17;;;;;;;3.53;1.38;;;9.60;61.40;;;;;;4998221;28;20034;-77
2022/04/03 10:57:44;;;;;;;1.92;1.25;;;9.70;61.00;;;;;;4981055;28;20130;-78
2022/04/03 11:00:12;;;;;;;2.72;1.30;;;9.80;60.60;;;;;;4951071;28;20519;-77
2022/04/03 11:02:58;;;;;;;1.75;0.85;;;9.80;60.10;;;;;;4994077;28;20041;-77
2022/04/03 11:05:27;;;;;;;1.20;1.10;;;9.90;58.40;;;;;;4997701;28;20042;-78
2022/04/03 11:08:02;;;;;;;1.45;0.82;;;10.00;59.40;;;;;;4991339;28;20188;-77
2022/04/03 11:10:50;;;;;;;1.77;1.23;;;10.10;59.10;;;;;;4992961;28;20905;-78
2022/04/03 11:13:20;;;;;;;0.93;0.90;;;10.10;57.70;;;;;;4996648;28;20052;-79
2022/04/03 11:15:56;;;;;;;1.70;0.80;;;10.10;58.30;;;;;;4961283;28;20041;-79
2022/04/03 11:18:37;;;;;;;1.77;1.13;;;10.10;58.40;;;;;;4997417;28;20039;-77
2022/04/03 11:21:21;;;;;;;1.88;1.08;;;10.20;57.90;;;;;;5001176;28;20038;-77
2022/04/03 11:23:47;;;;;;;1.95;1.10;;;10.30;56.30;;;;;;4995427;28;20062;-76
2022/04/03 11:26:12;;;;;;;1.30;1.17;;;10.20;57.40;;;;;;4994739;28;20117;-77
2022/04/03 11:28:38;;;;;;;1.98;1.30;;;10.20;57.40;;;;;;4974432;28;20064;-79
2022/04/03 11:31:04;;;;;;;2.15;1.30;;;10.20;56.90;;;;;;4998252;28;20034;-78
2022/04/03 11:33:30;;;;;;;2.55;1.40;;;10.00;56.30;;;;;;4984125;28;20096;-77
2022/04/03 11:36:08;;;;;;;4.43;1.85;;;9.80;56.50;;;;;;4972917;28;20034;-76
2022/04/03 11:38:35;;;;;;;4.07;1.30;;;9.70;56.10;;;;;;4978224;28;20042;-77
2022/04/03 11:41:04;;;;;;;1.88;1.40;;;9.80;56.90;;;;;;4995773;28;20036;-76
2022/04/03 11:43:30;;;;;;;2.30;1.00;;;9.80;56.50;;;;;;4988954;28;20029;-77
2022/04/03 11:45:57;;;;;;;1.02;0.90;;;9.80;56.50;;;;;;4997165;28;20378;-76
2022/04/03 11:48:25;;;;;;;2.90;1.20;;;9.70;56.20;;;;;;4983176;28;20038;-78
2022/04/03 11:51:12;;;;;;;1.42;1.10;;;9.70;55.80;;;;;;4999414;28;20030;-76
2022/04/03 11:53:39;;;;;;;2.33;2.13;;;9.70;55.90;;;;;;5019161;28;20041;-76
2022/04/03 11:56:11;;;;;;;2.55;1.10;;;9.80;56.50;;;;;;4993817;28;20044;-77
2022/04/03 11:58:37;;;;;;;2.03;1.15;;;10.00;56.20;;;;;;4986169;28;20033;-77
2022/04/03 12:01:03;;;;;;;2.03;1.20;;;10.20;56.00;;;;;;5013629;28;20021;-77
2022/04/03 12:03:29;;;;;;;1.63;1.23;;;10.20;55.70;;;;;;5007827;28;20417;-78
2022/04/03 12:06:14;;;;;;;2.08;1.08;;;10.30;55.40;;;;;;4982710;28;20028;-77
2022/04/03 12:08:40;;;;;;;1.10;0.98;;;10.40;54.20;;;;;;5028635;28;20029;-77
2022/04/03 12:11:24;;;;;;;2.90;1.02;;;10.40;55.00;;;;;;4999294;28;20042;-76
2022/04/03 12:13:59;;;;;;;3.10;1.55;;;10.30;54.20;;;;;;5012898;28;20072;-76
2022/04/03 12:16:30;;;;;;;1.45;1.10;;;10.30;54.30;;;;;;4984746;28;20065;-76
2022/04/03 12:18:59;;;;;;;1.55;1.33;;;10.20;54.30;;;;;;5000054;28;20021;-76
2022/04/03 12:21:51;;;;;;;1.23;1.13;;;10.20;54.70;;;;;;4959593;28;20056;-76
2022/04/03 12:24:18;;;;;;;2.92;1.50;;;10.20;53.70;;;;;;4990773;28;20037;-76
2022/04/03 12:26:48;;;;;;;2.15;1.48;;;10.00;54.20;;;;;;4997638;28;20025;-77
2022/04/03 12:29:14;;;;;;;2.15;1.13;;;9.80;53.70;;;;;;4997504;28;20033;-76
2022/04/03 12:31:40;;;;;;;1.45;1.13;;;9.70;54.00;;;;;;5009531;28;20987;-78
2022/04/03 12:34:09;;;;;;;4.05;1.67;;;9.50;54.20;;;;;;4965039;28;20038;-77
2022/04/03 12:36:48;;;;;;;2.03;1.35;;;9.60;54.80;;;;;;5000399;28;20064;-75
2022/04/03 12:39:29;;;;;;;1.83;1.20;;;9.80;54.10;;;;;;4982675;28;20038;-75
2022/04/03 12:41:55;;;;;;;;;;;9.90;54.10;;;;;;4988914;28;20513;-75
2022/04/03 12:44:21;;;;;;;25.08;11.60;;;10.00;55.10;;;;;;5014563;28;19921;-75
2022/04/03 12:46:47;;;;;;;6.70;3.65;;;10.20;54.90;;;;;;4994732;28;20048;-75
2022/04/03 12:49:19;;;;;;;8.60;4.50;;;10.30;54.10;;;;;;5000089;28;20057;-75
2022/04/03 12:51:47;;;;;;;3.80;2.15;;;10.20;53.70;;;;;;4968521;28;20030;-74
2022/04/03 12:54:13;;;;;;;5.03;2.65;;;10.30;53.40;;;;;;5004934;28;20067;-73